sensor_id;sensor_type;location;lat;lon;timestamp;P1;durP1;ratioP1;P2;durP2;ratioP2
2191;SDS011;1102;49.718;11.902;2022-09-12T00:01:20;33.03;;;6.33;;
2191;SDS011;1102;49.718;11.902;2022-09-12T00:03:50;24.80;;;6.80;;
2191;SDS011;1102;49.718;11.902;2022-09-12T00:06:27;23.53;;;6.00;;
2191;SDS011;1102;49.718;11.902;2022-09-12T00:08:55;8.37;;;5.17;;
2191;SDS011;1102;49.718;11.902;2022-09-12T00:11:21;23.00;;;6.30;;
2191;SDS011;1102;49.718;11.902;2022-09-12T00:13:48;26.40;;;7.50;;
2191;SDS011;1102;49.718;11.902;2022-09-12T00:16:23;11.00;;;6.53;;
2191;SDS011;1102;49.718;11.902;2022-09-12T00:18:49;49.50;;;8.23;;
2191;SDS011;1102;49.718;11.902;2022-09-12T00:21:16;20.30;;;6.83;;
2191;SDS011;1102;49.718;11.902;2022-09-12T00:23:43;16.83;;;6.90;;
2191;SDS011;1102;49.718;11.902;2022-09-12T00:26:10;20.30;;;6.07;;
2191;SDS011;1102;49.718;11.902;2022-09-12T00:28:37;8.57;;;5.90;;
2191;SDS011;1102;49.718;11.902;2022-09-12T00:31:04;11.33;;;6.20;;
2191;SDS011;1102;49.718;11.902;2022-09-12T00:33:32;10.07;;;6.27;;
2191;SDS011;1102;49.718;11.902;2022-09-12T00:35:58;17.03;;;6.77;;
2191;SDS011;1102;49.718;11.902;2022-09-12T00:38:25;17.20;;;5.40;;
2191;SDS011;1102;49.718;11.902;2022-09-12T00:40:51;19.87;;;6.00;;
2191;SDS011;1102;49.718;11.902;2022-09-12T00:43:37;19.43;;;5.60;;
2191;SDS011;1102;49.718;11.902;2022-09-12T00:46:27;12.70;;;5.90;;
2191;SDS011;1102;49.718;11.902;2022-09-12T00:48:53;32.23;;;6.60;;
2191;SDS011;1102;49.718;11.902;2022-09-12T00:51:20;21.53;;;6.00;;
2191;SDS011;1102;49.718;11.902;2022-09-12T00:53:47;34.27;;;6.37;;
2191;SDS011;1102;49.718;11.902;2022-09-12T00:56:16;53.70;;;8.93;;
2191;SDS011;1102;49.718;11.902;2022-09-12T00:58:48;46.43;;;9.90;;
2191;SDS011;1102;49.718;11.902;2022-09-12T01:01:16;32.70;;;8.67;;
2191;SDS011;1102;49.718;11.902;2022-09-12T01:03:43;40.40;;;8.60;;
2191;SDS011;1102;49.718;11.902;2022-09-12T01:06:14;28.23;;;8.90;;
2191;SDS011;1102;49.718;11.902;2022-09-12T01:08:42;16.47;;;8.30;;
2191;SDS011;1102;49.718;11.902;2022-09-12T01:11:09;11.13;;;7.00;;
2191;SDS011;1102;49.718;11.902;2022-09-12T01:13:36;44.60;;;19.97;;
2191;SDS011;1102;49.718;11.902;2022-09-12T01:16:03;27.10;;;16.50;;
2191;SDS011;1102;49.718;11.902;2022-09-12T01:18:36;18.27;;;11.37;;
2191;SDS011;1102;49.718;11.902;2022-09-12T01:36:52;22.57;;;4.80;;
2191;SDS011;1102;49.718;11.902;2022-09-12T01:39:25;16.50;;;5.27;;
2191;SDS011;1102;49.718;11.902;2022-09-12T01:49:20;11.97;;;4.33;;
2191;SDS011;1102;49.718;11.902;2022-09-12T01:51:56;11.50;;;4.10;;
2191;SDS011;1102;49.718;11.902;2022-09-12T01:54:28;24.33;;;5.30;;
2191;SDS011;1102;49.718;11.902;2022-09-12T01:56:55;44.47;;;5.30;;
2191;SDS011;1102;49.718;11.902;2022-09-12T02:01:55;26.47;;;4.87;;
2191;SDS011;1102;49.718;11.902;2022-09-12T02:04:24;12.30;;;4.70;;
2191;SDS011;1102;49.718;11.902;2022-09-12T02:07:00;20.20;;;4.83;;
2191;SDS011;1102;49.718;11.902;2022-09-12T02:09:28;30.23;;;6.33;;
2191;SDS011;1102;49.718;11.902;2022-09-12T02:11:57;22.80;;;6.03;;
2191;SDS011;1102;49.718;11.902;2022-09-12T02:14:33;18.77;;;5.63;;
2191;SDS011;1102;49.718;11.902;2022-09-12T02:17:06;11.73;;;5.13;;
2191;SDS011;1102;49.718;11.902;2022-09-12T02:19:42;13.20;;;4.90;;
2191;SDS011;1102;49.718;11.902;2022-09-12T02:22:10;14.70;;;4.93;;
2191;SDS011;1102;49.718;11.902;2022-09-12T02:24:39;70.23;;;7.10;;
2191;SDS011;1102;49.718;11.902;2022-09-12T02:27:13;27.20;;;6.37;;
2191;SDS011;1102;49.718;11.902;2022-09-12T02:29:40;13.57;;;4.23;;
2191;SDS011;1102;49.718;11.902;2022-09-12T02:32:11;27.77;;;5.90;;
2191;SDS011;1102;49.718;11.902;2022-09-12T02:34:50;49.30;;;5.10;;
2191;SDS011;1102;49.718;11.902;2022-09-12T02:37:29;9.20;;;4.77;;
2191;SDS011;1102;49.718;11.902;2022-09-12T02:39:57;18.47;;;5.10;;
2191;SDS011;1102;49.718;11.902;2022-09-12T02:42:24;14.57;;;4.73;;
2191;SDS011;1102;49.718;11.902;2022-09-12T02:44:51;18.23;;;5.50;;
2191;SDS011;1102;49.718;11.902;2022-09-12T02:47:21;22.30;;;5.07;;
2191;SDS011;1102;49.718;11.902;2022-09-12T02:49:49;21.93;;;5.07;;
2191;SDS011;1102;49.718;11.902;2022-09-12T02:52:15;14.30;;;4.17;;
2191;SDS011;1102;49.718;11.902;2022-09-12T02:54:42;23.67;;;5.13;;
2191;SDS011;1102;49.718;11.902;2022-09-12T02:57:19;18.63;;;5.00;;
2191;SDS011;1102;49.718;11.902;2022-09-12T02:59:48;21.87;;;6.23;;
2191;SDS011;1102;49.718;11.902;2022-09-12T03:17:41;18.00;;;6.00;;
2191;SDS011;1102;49.718;11.902;2022-09-12T03:20:15;27.17;;;6.17;;
2191;SDS011;1102;49.718;11.902;2022-09-12T03:22:53;22.20;;;6.60;;
2191;SDS011;1102;49.718;11.902;2022-09-12T03:25:22;11.93;;;5.50;;
2191;SDS011;1102;49.718;11.902;2022-09-12T03:27:52;15.83;;;7.10;;
2191;SDS011;1102;49.718;11.902;2022-09-12T03:30:21;13.10;;;7.40;;
2191;SDS011;1102;49.718;11.902;2022-09-12T03:32:49;6.20;;;5.23;;
2191;SDS011;1102;49.718;11.902;2022-09-12T03:35:17;26.40;;;7.83;;
2191;SDS011;1102;49.718;11.902;2022-09-12T03:37:48;31.80;;;10.20;;
2191;SDS011;1102;49.718;11.902;2022-09-12T03:40:15;21.53;;;8.87;;
2191;SDS011;1102;49.718;11.902;2022-09-12T03:42:42;35.27;;;8.90;;
2191;SDS011;1102;49.718;11.902;2022-09-12T03:45:08;31.23;;;8.00;;
2191;SDS011;1102;49.718;11.902;2022-09-12T03:47:35;42.70;;;8.40;;
2191;SDS011;1102;49.718;11.902;2022-09-12T03:50:02;15.40;;;5.93;;
2191;SDS011;1102;49.718;11.902;2022-09-12T03:52:29;22.03;;;5.50;;
2191;SDS011;1102;49.718;11.902;2022-09-12T03:54:55;10.00;;;5.87;;
2191;SDS011;1102;49.718;11.902;2022-09-12T03:57:22;12.93;;;5.90;;
2191;SDS011;1102;49.718;11.902;2022-09-12T03:59:48;30.57;;;6.40;;
2191;SDS011;1102;49.718;11.902;2022-09-12T04:02:17;18.40;;;6.13;;
2191;SDS011;1102;49.718;11.902;2022-09-12T04:04:44;19.30;;;4.83;;
2191;SDS011;1102;49.718;11.902;2022-09-12T04:07:13;7.50;;;5.40;;
2191;SDS011;1102;49.718;11.902;2022-09-12T04:09:40;14.60;;;5.13;;
2191;SDS011;1102;49.718;11.902;2022-09-12T04:12:06;15.17;;;6.60;;
2191;SDS011;1102;49.718;11.902;2022-09-12T04:14:33;32.87;;;7.37;;
2191;SDS011;1102;49.718;11.902;2022-09-12T04:16:59;18.20;;;6.80;;
2191;SDS011;1102;49.718;11.902;2022-09-12T04:19:26;16.70;;;6.70;;
2191;SDS011;1102;49.718;11.902;2022-09-12T04:21:52;28.50;;;6.70;;
2191;SDS011;1102;49.718;11.902;2022-09-12T04:24:19;12.47;;;6.00;;
2191;SDS011;1102;49.718;11.902;2022-09-12T04:26:45;20.40;;;7.50;;
2191;SDS011;1102;49.718;11.902;2022-09-12T04:29:12;18.10;;;7.97;;
2191;SDS011;1102;49.718;11.902;2022-09-12T04:31:40;11.33;;;6.20;;
2191;SDS011;1102;49.718;11.902;2022-09-12T04:34:07;46.00;;;8.50;;
2191;SDS011;1102;49.718;11.902;2022-09-12T04:36:34;25.23;;;7.07;;
2191;SDS011;1102;49.718;11.902;2022-09-12T04:39:00;24.07;;;9.00;;
2191;SDS011;1102;49.718;11.902;2022-09-12T04:41:31;25.43;;;8.83;;
2191;SDS011;1102;49.718;11.902;2022-09-12T04:43:59;11.27;;;6.87;;
2191;SDS011;1102;49.718;11.902;2022-09-12T04:46:30;44.40;;;9.20;;
2191;SDS011;1102;49.718;11.902;2022-09-12T04:48:57;18.83;;;6.40;;
2191;SDS011;1102;49.718;11.902;2022-09-12T04:51:24;43.20;;;8.90;;
2191;SDS011;1102;49.718;11.902;2022-09-12T04:54:00;17.17;;;6.83;;
2191;SDS011;1102;49.718;11.902;2022-09-12T04:56:27;15.00;;;5.27;;
2191;SDS011;1102;49.718;11.902;2022-09-12T04:58:57;15.03;;;6.20;;
2191;SDS011;1102;49.718;11.902;2022-09-12T05:01:24;11.23;;;5.27;;
2191;SDS011;1102;49.718;11.902;2022-09-12T05:03:51;13.37;;;7.10;;
2191;SDS011;1102;49.718;11.902;2022-09-12T05:06:22;35.50;;;8.37;;
2191;SDS011;1102;49.718;11.902;2022-09-12T05:08:49;29.83;;;6.40;;
2191;SDS011;1102;49.718;11.902;2022-09-12T05:11:17;29.67;;;7.00;;
2191;SDS011;1102;49.718;11.902;2022-09-12T05:13:50;16.87;;;6.23;;
2191;SDS011;1102;49.718;11.902;2022-09-12T05:16:17;14.10;;;6.43;;
2191;SDS011;1102;49.718;11.902;2022-09-12T05:18:44;19.60;;;7.10;;
2191;SDS011;1102;49.718;11.902;2022-09-12T05:21:13;25.33;;;7.37;;
2191;SDS011;1102;49.718;11.902;2022-09-12T05:23:39;33.87;;;7.93;;
2191;SDS011;1102;49.718;11.902;2022-09-12T05:26:06;20.07;;;6.47;;
2191;SDS011;1102;49.718;11.902;2022-09-12T05:28:34;27.50;;;7.07;;
2191;SDS011;1102;49.718;11.902;2022-09-12T05:33:34;18.23;;;6.57;;
2191;SDS011;1102;49.718;11.902;2022-09-12T05:36:02;26.03;;;7.37;;
2191;SDS011;1102;49.718;11.902;2022-09-12T05:38:28;18.10;;;6.67;;
2191;SDS011;1102;49.718;11.902;2022-09-12T05:41:02;16.53;;;6.20;;
2191;SDS011;1102;49.718;11.902;2022-09-12T05:43:28;25.03;;;7.47;;
2191;SDS011;1102;49.718;11.902;2022-09-12T05:46:05;17.47;;;6.43;;
2191;SDS011;1102;49.718;11.902;2022-09-12T05:48:34;24.47;;;6.97;;
2191;SDS011;1102;49.718;11.902;2022-09-12T05:51:03;35.57;;;8.20;;
2191;SDS011;1102;49.718;11.902;2022-09-12T05:53:32;42.10;;;7.93;;
2191;SDS011;1102;49.718;11.902;2022-09-12T05:56:02;38.23;;;7.90;;
2191;SDS011;1102;49.718;11.902;2022-09-12T05:58:29;27.63;;;5.80;;
2191;SDS011;1102;49.718;11.902;2022-09-12T06:00:59;42.93;;;7.57;;
2191;SDS011;1102;49.718;11.902;2022-09-12T06:03:26;9.53;;;5.83;;
2191;SDS011;1102;49.718;11.902;2022-09-12T06:05:52;17.77;;;5.73;;
2191;SDS011;1102;49.718;11.902;2022-09-12T06:08:19;5.40;;;4.90;;
2191;SDS011;1102;49.718;11.902;2022-09-12T06:10:45;17.93;;;6.30;;
2191;SDS011;1102;49.718;11.902;2022-09-12T06:13:12;6.30;;;4.80;;
2191;SDS011;1102;49.718;11.902;2022-09-12T06:15:39;15.07;;;5.30;;
2191;SDS011;1102;49.718;11.902;2022-09-12T06:18:05;11.00;;;4.53;;
2191;SDS011;1102;49.718;11.902;2022-09-12T06:20:32;12.93;;;4.90;;
2191;SDS011;1102;49.718;11.902;2022-09-12T06:23:01;11.67;;;6.67;;
2191;SDS011;1102;49.718;11.902;2022-09-12T06:25:27;8.60;;;5.47;;
2191;SDS011;1102;49.718;11.902;2022-09-12T06:27:54;12.63;;;6.20;;
2191;SDS011;1102;49.718;11.902;2022-09-12T06:30:21;15.83;;;6.07;;
2191;SDS011;1102;49.718;11.902;2022-09-12T06:32:50;14.53;;;6.40;;
2191;SDS011;1102;49.718;11.902;2022-09-12T06:35:17;10.13;;;6.23;;
2191;SDS011;1102;49.718;11.902;2022-09-12T06:37:44;19.93;;;7.00;;
2191;SDS011;1102;49.718;11.902;2022-09-12T06:40:10;11.17;;;6.60;;
2191;SDS011;1102;49.718;11.902;2022-09-12T06:42:37;29.67;;;6.97;;
2191;SDS011;1102;49.718;11.902;2022-09-12T06:45:04;9.60;;;5.53;;
2191;SDS011;1102;49.718;11.902;2022-09-12T06:47:30;8.17;;;5.20;;
2191;SDS011;1102;49.718;11.902;2022-09-12T06:49:57;16.90;;;6.50;;
2191;SDS011;1102;49.718;11.902;2022-09-12T06:52:24;19.83;;;7.13;;
2191;SDS011;1102;49.718;11.902;2022-09-12T06:54:50;18.23;;;6.30;;
2191;SDS011;1102;49.718;11.902;2022-09-12T06:57:17;22.10;;;5.93;;
2191;SDS011;1102;49.718;11.902;2022-09-12T06:59:43;19.87;;;7.47;;
2191;SDS011;1102;49.718;11.902;2022-09-12T07:02:10;11.87;;;7.40;;
2191;SDS011;1102;49.718;11.902;2022-09-12T07:04:37;12.00;;;6.57;;
2191;SDS011;1102;49.718;11.902;2022-09-12T07:07:04;16.63;;;6.63;;
2191;SDS011;1102;49.718;11.902;2022-09-12T07:09:31;14.80;;;8.13;;
2191;SDS011;1102;49.718;11.902;2022-09-12T07:11:57;7.00;;;6.30;;
2191;SDS011;1102;49.718;11.902;2022-09-12T07:14:23;8.20;;;6.77;;
2191;SDS011;1102;49.718;11.902;2022-09-12T07:16:51;15.50;;;7.80;;
2191;SDS011;1102;49.718;11.902;2022-09-12T07:19:17;22.07;;;8.97;;
2191;SDS011;1102;49.718;11.902;2022-09-12T07:21:44;10.27;;;7.37;;
2191;SDS011;1102;49.718;11.902;2022-09-12T07:24:11;26.60;;;7.63;;
2191;SDS011;1102;49.718;11.902;2022-09-12T07:26:38;23.83;;;6.67;;
2191;SDS011;1102;49.718;11.902;2022-09-12T07:29:05;18.00;;;8.37;;
2191;SDS011;1102;49.718;11.902;2022-09-12T07:31:52;9.87;;;8.53;;
2191;SDS011;1102;49.718;11.902;2022-09-12T07:34:18;18.83;;;7.70;;
2191;SDS011;1102;49.718;11.902;2022-09-12T07:36:45;10.00;;;7.27;;
2191;SDS011;1102;49.718;11.902;2022-09-12T07:39:11;8.93;;;7.90;;
2191;SDS011;1102;49.718;11.902;2022-09-12T07:41:38;16.33;;;8.93;;
2191;SDS011;1102;49.718;11.902;2022-09-12T07:44:04;10.70;;;8.23;;
2191;SDS011;1102;49.718;11.902;2022-09-12T07:46:32;9.60;;;8.03;;
2191;SDS011;1102;49.718;11.902;2022-09-12T07:48:59;13.00;;;10.50;;
2191;SDS011;1102;49.718;11.902;2022-09-12T07:51:26;11.83;;;6.60;;
2191;SDS011;1102;49.718;11.902;2022-09-12T07:53:53;9.63;;;8.73;;
2191;SDS011;1102;49.718;11.902;2022-09-12T07:56:21;9.97;;;8.97;;
2191;SDS011;1102;49.718;11.902;2022-09-12T07:58:54;18.97;;;9.10;;
2191;SDS011;1102;49.718;11.902;2022-09-12T08:01:22;10.27;;;9.27;;
2191;SDS011;1102;49.718;11.902;2022-09-12T08:03:51;11.17;;;8.60;;
2191;SDS011;1102;49.718;11.902;2022-09-12T08:06:19;11.23;;;9.53;;
2191;SDS011;1102;49.718;11.902;2022-09-12T08:08:46;17.07;;;9.07;;
2191;SDS011;1102;49.718;11.902;2022-09-12T08:11:14;9.80;;;8.63;;
2191;SDS011;1102;49.718;11.902;2022-09-12T08:13:41;9.80;;;8.37;;
2191;SDS011;1102;49.718;11.902;2022-09-12T08:16:12;11.63;;;10.27;;
2191;SDS011;1102;49.718;11.902;2022-09-12T08:18:39;16.70;;;8.83;;
2191;SDS011;1102;49.718;11.902;2022-09-12T08:21:07;12.60;;;9.50;;
2191;SDS011;1102;49.718;11.902;2022-09-12T08:23:34;11.73;;;9.30;;
2191;SDS011;1102;49.718;11.902;2022-09-12T08:26:01;12.57;;;9.50;;
2191;SDS011;1102;49.718;11.902;2022-09-12T08:28:32;11.80;;;10.00;;
2191;SDS011;1102;49.718;11.902;2022-09-12T08:31:03;10.70;;;9.50;;
2191;SDS011;1102;49.718;11.902;2022-09-12T08:33:31;9.87;;;8.87;;
2191;SDS011;1102;49.718;11.902;2022-09-12T08:36:02;10.57;;;9.30;;
2191;SDS011;1102;49.718;11.902;2022-09-12T08:38:29;13.17;;;10.73;;
2191;SDS011;1102;49.718;11.902;2022-09-12T08:41:01;12.70;;;10.20;;
2191;SDS011;1102;49.718;11.902;2022-09-12T08:45:58;12.93;;;10.73;;
2191;SDS011;1102;49.718;11.902;2022-09-12T08:48:27;10.83;;;9.70;;
2191;SDS011;1102;49.718;11.902;2022-09-12T08:50:54;11.40;;;10.20;;
2191;SDS011;1102;49.718;11.902;2022-09-12T08:53:21;13.97;;;10.63;;
2191;SDS011;1102;49.718;11.902;2022-09-12T08:55:52;12.23;;;11.03;;
2191;SDS011;1102;49.718;11.902;2022-09-12T08:58:20;12.60;;;11.30;;
2191;SDS011;1102;49.718;11.902;2022-09-12T09:06:06;11.07;;;9.97;;
2191;SDS011;1102;49.718;11.902;2022-09-12T09:08:44;11.90;;;10.40;;
2191;SDS011;1102;49.718;11.902;2022-09-12T09:11:21;9.53;;;8.63;;
2191;SDS011;1102;49.718;11.902;2022-09-12T09:16:41;11.00;;;9.93;;
2191;SDS011;1102;49.718;11.902;2022-09-12T09:19:19;12.93;;;9.00;;
2191;SDS011;1102;49.718;11.902;2022-09-12T09:21:49;10.27;;;9.17;;
2191;SDS011;1102;49.718;11.902;2022-09-12T09:24:17;9.40;;;8.60;;
2191;SDS011;1102;49.718;11.902;2022-09-12T09:26:48;9.93;;;9.03;;
2191;SDS011;1102;49.718;11.902;2022-09-12T09:29:21;10.87;;;9.77;;
2191;SDS011;1102;49.718;11.902;2022-09-12T09:31:51;9.00;;;8.20;;
2191;SDS011;1102;49.718;11.902;2022-09-12T09:34:19;9.10;;;8.30;;
2191;SDS011;1102;49.718;11.902;2022-09-12T09:39:32;9.47;;;8.57;;
2191;SDS011;1102;49.718;11.902;2022-09-12T09:44:35;8.23;;;7.43;;
2191;SDS011;1102;49.718;11.902;2022-09-12T09:47:02;7.60;;;6.80;;
2191;SDS011;1102;49.718;11.902;2022-09-12T09:49:29;7.40;;;6.70;;
2191;SDS011;1102;49.718;11.902;2022-09-12T09:51:57;7.47;;;6.70;;
2191;SDS011;1102;49.718;11.902;2022-09-12T09:54:48;6.80;;;6.10;;
2191;SDS011;1102;49.718;11.902;2022-09-12T09:57:37;6.93;;;6.33;;
2191;SDS011;1102;49.718;11.902;2022-09-12T10:05:26;7.13;;;6.53;;
2191;SDS011;1102;49.718;11.902;2022-09-12T10:07:53;6.50;;;5.93;;
2191;SDS011;1102;49.718;11.902;2022-09-12T10:10:20;6.10;;;5.60;;
2191;SDS011;1102;49.718;11.902;2022-09-12T10:12:51;8.37;;;6.20;;
2191;SDS011;1102;49.718;11.902;2022-09-12T10:15:31;6.70;;;6.20;;
2191;SDS011;1102;49.718;11.902;2022-09-12T10:18:00;10.77;;;6.30;;
2191;SDS011;1102;49.718;11.902;2022-09-12T10:20:43;7.20;;;6.40;;
2191;SDS011;1102;49.718;11.902;2022-09-12T10:25:46;8.00;;;4.77;;
2191;SDS011;1102;49.718;11.902;2022-09-12T10:28:20;5.53;;;5.03;;
2191;SDS011;1102;49.718;11.902;2022-09-12T10:30:50;5.80;;;5.30;;
2191;SDS011;1102;49.718;11.902;2022-09-12T10:33:18;6.37;;;4.83;;
2191;SDS011;1102;49.718;11.902;2022-09-12T10:35:46;5.63;;;5.13;;
2191;SDS011;1102;49.718;11.902;2022-09-12T10:38:20;5.77;;;5.17;;
2191;SDS011;1102;49.718;11.902;2022-09-12T10:40:54;4.87;;;3.77;;
2191;SDS011;1102;49.718;11.902;2022-09-12T10:45:50;4.83;;;4.43;;
2191;SDS011;1102;49.718;11.902;2022-09-12T10:50:49;5.63;;;5.13;;
2191;SDS011;1102;49.718;11.902;2022-09-12T10:53:18;4.00;;;3.70;;
2191;SDS011;1102;49.718;11.902;2022-09-12T11:00:57;4.47;;;4.07;;
2191;SDS011;1102;49.718;11.902;2022-09-12T11:06:21;3.30;;;3.00;;
2191;SDS011;1102;49.718;11.902;2022-09-12T11:08:54;4.27;;;3.87;;
2191;SDS011;1102;49.718;11.902;2022-09-12T11:17:06;4.33;;;4.03;;
2191;SDS011;1102;49.718;11.902;2022-09-12T11:19:44;3.90;;;3.37;;
2191;SDS011;1102;49.718;11.902;2022-09-12T11:24:54;3.40;;;3.20;;
2191;SDS011;1102;49.718;11.902;2022-09-12T11:27:31;3.50;;;3.20;;
2191;SDS011;1102;49.718;11.902;2022-09-12T11:30:12;2.87;;;2.67;;
2191;SDS011;1102;49.718;11.902;2022-09-12T11:40:17;3.23;;;2.93;;
2191;SDS011;1102;49.718;11.902;2022-09-12T11:42:48;3.80;;;3.50;;
2191;SDS011;1102;49.718;11.902;2022-09-12T11:45:27;3.90;;;2.90;;
2191;SDS011;1102;49.718;11.902;2022-09-12T11:47:56;3.33;;;2.87;;
2191;SDS011;1102;49.718;11.902;2022-09-12T11:50:28;3.10;;;2.80;;
2191;SDS011;1102;49.718;11.902;2022-09-12T11:53:14;2.40;;;2.20;;
2191;SDS011;1102;49.718;11.902;2022-09-12T11:58:18;2.63;;;2.43;;
2191;SDS011;1102;49.718;11.902;2022-09-12T12:00:48;2.50;;;2.30;;
2191;SDS011;1102;49.718;11.902;2022-09-12T12:03:19;2.73;;;2.53;;
2191;SDS011;1102;49.718;11.902;2022-09-12T12:06:03;2.57;;;2.37;;
2191;SDS011;1102;49.718;11.902;2022-09-12T12:08:36;3.40;;;2.60;;
2191;SDS011;1102;49.718;11.902;2022-09-12T12:11:04;2.80;;;2.60;;
2191;SDS011;1102;49.718;11.902;2022-09-12T12:13:50;2.80;;;2.60;;
2191;SDS011;1102;49.718;11.902;2022-09-12T12:18:56;2.67;;;2.47;;
2191;SDS011;1102;49.718;11.902;2022-09-12T12:35:35;4.33;;;2.83;;
2191;SDS011;1102;49.718;11.902;2022-09-12T12:40:19;7.53;;;3.20;;
2191;SDS011;1102;49.718;11.902;2022-09-12T12:47:43;2.77;;;2.57;;
2191;SDS011;1102;49.718;11.902;2022-09-12T12:57:52;4.90;;;2.93;;
2191;SDS011;1102;49.718;11.902;2022-09-12T13:05:25;3.07;;;2.87;;
2191;SDS011;1102;49.718;11.902;2022-09-12T13:08:35;3.43;;;3.23;;
2191;SDS011;1102;49.718;11.902;2022-09-12T13:10:52;4.63;;;3.27;;
2191;SDS011;1102;49.718;11.902;2022-09-12T13:13:37;3.60;;;3.30;;
2191;SDS011;1102;49.718;11.902;2022-09-12T13:16:04;3.90;;;2.67;;
2191;SDS011;1102;49.718;11.902;2022-09-12T13:23:27;3.53;;;3.00;;
2191;SDS011;1102;49.718;11.902;2022-09-12T13:25:54;2.60;;;2.37;;
2191;SDS011;1102;49.718;11.902;2022-09-12T13:28:21;2.70;;;2.50;;
2191;SDS011;1102;49.718;11.902;2022-09-12T13:31:02;2.93;;;2.73;;
2191;SDS011;1102;49.718;11.902;2022-09-12T13:33:41;3.00;;;2.70;;
2191;SDS011;1102;49.718;11.902;2022-09-12T13:36:12;3.03;;;2.83;;
2191;SDS011;1102;49.718;11.902;2022-09-12T13:43:43;3.20;;;2.90;;
2191;SDS011;1102;49.718;11.902;2022-09-12T13:46:13;3.07;;;2.87;;
2191;SDS011;1102;49.718;11.902;2022-09-12T13:48:41;2.70;;;2.50;;
2191;SDS011;1102;49.718;11.902;2022-09-12T13:51:14;2.93;;;2.73;;
2191;SDS011;1102;49.718;11.902;2022-09-12T13:53:45;2.70;;;2.50;;
2191;SDS011;1102;49.718;11.902;2022-09-12T13:56:16;3.27;;;2.60;;
2191;SDS011;1102;49.718;11.902;2022-09-12T13:58:56;2.77;;;2.50;;
2191;SDS011;1102;49.718;11.902;2022-09-12T14:01:23;2.83;;;2.63;;
2191;SDS011;1102;49.718;11.902;2022-09-12T14:03:54;3.47;;;2.53;;
2191;SDS011;1102;49.718;11.902;2022-09-12T14:09:15;3.17;;;2.87;;
2191;SDS011;1102;49.718;11.902;2022-09-12T14:11:46;2.50;;;2.30;;
2191;SDS011;1102;49.718;11.902;2022-09-12T14:14:17;3.30;;;3.00;;
2191;SDS011;1102;49.718;11.902;2022-09-12T14:16:44;3.00;;;2.70;;
2191;SDS011;1102;49.718;11.902;2022-09-12T14:19:11;3.40;;;3.10;;
2191;SDS011;1102;49.718;11.902;2022-09-12T14:21:37;2.73;;;2.53;;
2191;SDS011;1102;49.718;11.902;2022-09-12T14:24:04;3.23;;;3.03;;
2191;SDS011;1102;49.718;11.902;2022-09-12T14:26:32;2.50;;;2.30;;
2191;SDS011;1102;49.718;11.902;2022-09-12T14:29:01;3.80;;;2.80;;
2191;SDS011;1102;49.718;11.902;2022-09-12T14:31:30;3.10;;;2.90;;
2191;SDS011;1102;49.718;11.902;2022-09-12T14:34:08;3.37;;;3.17;;
2191;SDS011;1102;49.718;11.902;2022-09-12T14:36:38;3.40;;;3.10;;
2191;SDS011;1102;49.718;11.902;2022-09-12T14:39:06;3.60;;;3.10;;
2191;SDS011;1102;49.718;11.902;2022-09-12T14:41:40;3.03;;;2.70;;
2191;SDS011;1102;49.718;11.902;2022-09-12T14:44:07;3.80;;;3.50;;
2191;SDS011;1102;49.718;11.902;2022-09-12T14:46:36;2.63;;;2.43;;
2191;SDS011;1102;49.718;11.902;2022-09-12T14:51:41;4.80;;;3.30;;
2191;SDS011;1102;49.718;11.902;2022-09-12T14:54:53;3.60;;;3.30;;
2191;SDS011;1102;49.718;11.902;2022-09-12T15:00:04;3.67;;;3.37;;
2191;SDS011;1102;49.718;11.902;2022-09-12T15:02:31;3.23;;;2.93;;
2191;SDS011;1102;49.718;11.902;2022-09-12T15:07:38;3.00;;;2.70;;
2191;SDS011;1102;49.718;11.902;2022-09-12T15:10:06;3.33;;;2.73;;
2191;SDS011;1102;49.718;11.902;2022-09-12T15:12:40;3.60;;;3.30;;
2191;SDS011;1102;49.718;11.902;2022-09-12T15:15:17;3.07;;;2.70;;
2191;SDS011;1102;49.718;11.902;2022-09-12T15:17:44;3.13;;;2.80;;
2191;SDS011;1102;49.718;11.902;2022-09-12T15:20:12;5.77;;;2.77;;
2191;SDS011;1102;49.718;11.902;2022-09-12T15:22:39;3.90;;;3.17;;
2191;SDS011;1102;49.718;11.902;2022-09-12T15:25:06;3.00;;;2.70;;
2191;SDS011;1102;49.718;11.902;2022-09-12T15:27:32;6.03;;;3.00;;
2191;SDS011;1102;49.718;11.902;2022-09-12T15:29:59;2.70;;;2.50;;
2191;SDS011;1102;49.718;11.902;2022-09-12T15:32:27;4.30;;;2.90;;
2191;SDS011;1102;49.718;11.902;2022-09-12T15:34:54;3.30;;;3.10;;
2191;SDS011;1102;49.718;11.902;2022-09-12T15:37:22;3.00;;;2.80;;
2191;SDS011;1102;49.718;11.902;2022-09-12T15:39:49;9.00;;;3.63;;
2191;SDS011;1102;49.718;11.902;2022-09-12T15:42:17;3.07;;;2.87;;
2191;SDS011;1102;49.718;11.902;2022-09-12T15:44:45;3.30;;;3.10;;
2191;SDS011;1102;49.718;11.902;2022-09-12T15:47:12;3.27;;;2.90;;
2191;SDS011;1102;49.718;11.902;2022-09-12T15:49:38;3.50;;;3.20;;
2191;SDS011;1102;49.718;11.902;2022-09-12T15:52:06;3.73;;;2.97;;
2191;SDS011;1102;49.718;11.902;2022-09-12T15:54:32;2.80;;;2.60;;
2191;SDS011;1102;49.718;11.902;2022-09-12T15:56:59;3.23;;;3.00;;
2191;SDS011;1102;49.718;11.902;2022-09-12T15:59:26;2.50;;;2.30;;
2191;SDS011;1102;49.718;11.902;2022-09-12T16:01:52;3.70;;;2.90;;
2191;SDS011;1102;49.718;11.902;2022-09-12T16:06:49;3.77;;;3.33;;
2191;SDS011;1102;49.718;11.902;2022-09-12T16:09:16;3.03;;;2.83;;
2191;SDS011;1102;49.718;11.902;2022-09-12T16:11:43;3.20;;;2.90;;
2191;SDS011;1102;49.718;11.902;2022-09-12T16:14:13;3.00;;;2.80;;
2191;SDS011;1102;49.718;11.902;2022-09-12T16:16:40;3.37;;;3.17;;
2191;SDS011;1102;49.718;11.902;2022-09-12T16:19:07;3.40;;;2.67;;
2191;SDS011;1102;49.718;11.902;2022-09-12T16:21:37;3.63;;;3.13;;
2191;SDS011;1102;49.718;11.902;2022-09-12T16:24:04;3.23;;;3.03;;
2191;SDS011;1102;49.718;11.902;2022-09-12T16:26:30;4.10;;;3.37;;
2191;SDS011;1102;49.718;11.902;2022-09-12T16:28:57;3.30;;;3.10;;
2191;SDS011;1102;49.718;11.902;2022-09-12T16:31:24;3.67;;;3.47;;
2191;SDS011;1102;49.718;11.902;2022-09-12T16:33:51;3.70;;;3.40;;
2191;SDS011;1102;49.718;11.902;2022-09-12T16:36:18;3.40;;;3.20;;
2191;SDS011;1102;49.718;11.902;2022-09-12T16:38:46;3.73;;;3.43;;
2191;SDS011;1102;49.718;11.902;2022-09-12T16:41:14;3.83;;;3.20;;
2191;SDS011;1102;49.718;11.902;2022-09-12T16:43:41;5.20;;;3.40;;
2191;SDS011;1102;49.718;11.902;2022-09-12T16:46:12;3.30;;;3.10;;
2191;SDS011;1102;49.718;11.902;2022-09-12T16:48:42;3.67;;;3.33;;
2191;SDS011;1102;49.718;11.902;2022-09-12T16:51:17;3.50;;;3.20;;
2191;SDS011;1102;49.718;11.902;2022-09-12T16:53:45;4.03;;;3.20;;
2191;SDS011;1102;49.718;11.902;2022-09-12T16:56:12;3.20;;;3.00;;
2191;SDS011;1102;49.718;11.902;2022-09-12T16:58:39;3.13;;;2.93;;
2191;SDS011;1102;49.718;11.902;2022-09-12T17:01:15;3.57;;;3.30;;
2191;SDS011;1102;49.718;11.902;2022-09-12T17:03:42;4.13;;;3.70;;
2191;SDS011;1102;49.718;11.902;2022-09-12T17:08:36;3.83;;;3.47;;
2191;SDS011;1102;49.718;11.902;2022-09-12T17:11:07;3.50;;;3.20;;
2191;SDS011;1102;49.718;11.902;2022-09-12T17:13:34;4.23;;;3.77;;
2191;SDS011;1102;49.718;11.902;2022-09-12T17:16:21;3.37;;;3.07;;
2191;SDS011;1102;49.718;11.902;2022-09-12T17:18:48;3.10;;;2.90;;
2191;SDS011;1102;49.718;11.902;2022-09-12T17:21:14;4.57;;;4.20;;
2191;SDS011;1102;49.718;11.902;2022-09-12T17:23:41;5.27;;;3.77;;
2191;SDS011;1102;49.718;11.902;2022-09-12T17:26:08;4.20;;;3.80;;
2191;SDS011;1102;49.718;11.902;2022-09-12T17:28:36;4.60;;;4.20;;
2191;SDS011;1102;49.718;11.902;2022-09-12T17:31:03;3.93;;;3.57;;
2191;SDS011;1102;49.718;11.902;2022-09-12T17:33:30;5.40;;;3.93;;
2191;SDS011;1102;49.718;11.902;2022-09-12T17:36:01;4.07;;;3.63;;
2191;SDS011;1102;49.718;11.902;2022-09-12T17:38:30;6.37;;;3.80;;
2191;SDS011;1102;49.718;11.902;2022-09-12T17:41:03;4.40;;;4.00;;
2191;SDS011;1102;49.718;11.902;2022-09-12T17:43:30;5.10;;;4.10;;
2191;SDS011;1102;49.718;11.902;2022-09-12T17:45:56;5.90;;;3.80;;
2191;SDS011;1102;49.718;11.902;2022-09-12T17:48:23;3.97;;;3.67;;